Time;durP1;ratioP1;P1;durP2;ratioP2;P2;SDS_P1;SDS_P2;PMS_P1;PMS_P2;Temp;Humidity;BMP_temperature;BMP_pressure;BME280_temperature;BME280_humidity;BME280_pressure;Samples;Min_cycle;Max_cycle;Signal;HPM_P1;HPM_P2
2023/11/08 00:00:23;;;;;;;9.60;7.27;;;;;;;7.16;100.00;101944.00;4975266;28;20193;-72
2023/11/08 00:02:48;;;;;;;9.23;6.97;;;;;;;8.06;100.00;102093.66;4975440;28;20417;-72
2023/11/08 00:05:15;;;;;;;8.00;5.30;;;;;;;7.81;100.00;102048.03;4977369;28;20197;-71
2023/11/08 00:07:41;;;;;;;8.17;5.47;;;;;;;7.96;100.00;102048.34;4964407;28;20486;-71
2023/11/08 00:10:09;;;;;;;10.50;5.50;;;;;;;8.09;100.00;102083.50;4977432;28;20554;-71
2023/11/08 00:12:35;;;;;;;12.47;5.87;;;;;;;7.97;100.00;102086.56;4974094;28;20465;-72
2023/11/08 00:15:01;;;;;;;8.40;5.60;;;;;;;8.07;100.00;102095.34;4984760;28;20443;-72
2023/11/08 00:17:27;;;;;;;9.23;4.83;;;;;;;7.86;100.00;102058.22;4966434;28;20429;-72
2023/11/08 00:19:54;;;;;;;7.90;4.30;;;;;;;8.16;100.00;102089.13;4985212;28;20534;-71
2023/11/08 00:22:20;;;;;;;8.10;4.43;;;;;;;8.06;100.00;102056.25;4983855;28;20302;-72
2023/11/08 00:24:46;;;;;;;9.27;5.33;;;;;;;7.46;100.00;101972.22;4986873;28;20448;-72
2023/11/08 00:27:11;;;;;;;8.93;4.70;;;;;;;8.02;100.00;102071.78;4985989;28;20916;-71
2023/11/08 00:29:36;;;;;;;5.60;4.13;;;;;;;7.73;100.00;102052.44;4965351;28;20186;-72
2023/11/08 00:32:02;;;;;;;10.80;4.30;;;;;;;8.17;100.00;102081.94;4961754;28;20214;-72
2023/11/08 00:34:27;;;;;;;7.10;3.67;;;;;;;8.03;100.00;102073.44;4980870;28;20190;-72
2023/11/08 00:36:53;;;;;;;8.27;4.10;;;;;;;7.58;100.00;101962.16;4980595;28;20187;-72
2023/11/08 00:39:19;;;;;;;6.40;3.50;;;;;;;8.14;100.00;102041.16;4980156;28;20189;-72
2023/11/08 00:41:44;;;;;;;5.70;2.43;;;;;;;7.96;100.00;101999.41;4973050;28;21703;-72
2023/11/08 00:44:10;;;;;;;7.40;2.27;;;;;;;8.39;100.00;102068.13;4966271;28;20308;-71
2023/11/08 00:46:37;;;;;;;7.40;2.53;;;;;;;7.98;100.00;102043.66;4981903;28;20295;-72
2023/11/08 00:49:03;;;;;;;5.03;2.77;;;;;;;8.18;100.00;102052.38;4981822;28;20251;-71
2023/11/08 00:51:29;;;;;;;4.30;2.10;;;;;;;7.45;100.00;101930.47;4962976;28;21175;-72
2023/11/08 00:53:55;;;;;;;5.00;2.17;;;;;;;8.29;100.00;102020.06;4982564;28;20502;-72
2023/11/08 00:56:21;;;;;;;8.73;2.20;;;;;;;7.72;100.00;101957.25;4961627;28;21174;-71
2023/11/08 00:58:46;;;;;;;5.03;2.07;;;;;;;8.28;100.00;102012.19;4960246;28;20173;-72
2023/11/08 01:01:12;;;;;;;4.70;2.50;;;;;;;8.23;100.00;101995.78;4962710;28;20461;-72
2023/11/08 01:03:37;;;;;;;5.90;2.17;;;;;;;7.78;100.00;101970.00;4978344;28;20189;-72
2023/11/08 01:06:03;;;;;;;5.87;2.80;;;;;;;7.83;100.00;101989.09;4969120;28;20568;-72
2023/11/08 01:08:29;;;;;;;6.07;3.03;;;;;;;7.92;100.00;102014.88;4961570;28;20205;-71
2023/11/08 01:10:54;;;;;;;5.97;3.03;;;;;;;6.99;100.00;101878.94;4982181;28;20208;-72
2023/11/08 01:13:20;;;;;;;5.93;2.77;;;;;;;7.77;100.00;101974.50;4956997;28;20209;-72
2023/11/08 01:15:46;;;;;;;6.17;3.23;;;;;;;7.70;100.00;102001.00;4959074;28;20676;-71
2023/11/08 01:18:12;;;;;;;6.17;3.73;;;;;;;7.87;100.00;102017.19;4989502;28;20483;-71
2023/11/08 01:20:37;;;;;;;6.00;3.97;;;;;;;7.74;100.00;102032.75;4971528;28;20234;-72
2023/11/08 01:23:03;;;;;;;7.50;3.30;;;;;;;7.66;100.00;102010.28;4985599;28;20186;-72
2023/11/08 01:25:29;;;;;;;7.23;3.57;;;;;;;7.25;100.00;101985.81;4983604;28;20186;-72
2023/11/08 01:27:55;;;;;;;5.60;3.63;;;;;;;7.28;100.00;102003.34;4986434;28;21024;-72
2023/11/08 01:30:20;;;;;;;4.77;3.13;;;;;;;7.77;100.00;102069.81;4981417;28;20189;-71
2023/11/08 01:32:46;;;;;;;6.90;3.10;;;;;;;7.80;100.00;102051.66;4966300;28;20197;-72
2023/11/08 01:35:11;;;;;;;6.40;3.80;;;;;;;7.78;100.00;102079.50;4987950;28;20245;-72
2023/11/08 01:37:39;;;;;;;6.50;3.43;;;;;;;7.69;100.00;102058.06;4990478;28;20554;-71
2023/11/08 01:40:07;;;;;;;6.00;2.70;;;;;;;8.07;100.00;102095.34;4984607;28;20185;-72
2023/11/08 01:42:33;;;;;;;7.20;4.27;;;;;;;7.71;100.00;102063.25;4979931;28;20986;-72
2023/11/08 01:44:59;;;;;;;6.90;3.97;;;;;;;7.98;100.00;102101.59;4982402;28;20504;-72
2023/11/08 01:47:25;;;;;;;7.70;4.03;;;;;;;7.97;100.00;102113.28;4977749;28;20504;-72
2023/11/08 01:49:51;;;;;;;10.00;5.20;;;;;;;7.92;100.00;102116.41;4980885;28;20206;-71
2023/11/08 01:52:17;;;;;;;8.13;5.50;;;;;;;7.84;100.00;102110.97;4979123;28;20586;-71
2023/11/08 01:54:49;;;;;;;10.40;5.93;;;;;;;7.75;100.00;102102.00;4979510;28;20209;-72
2023/11/08 01:57:15;;;;;;;9.50;6.30;;;;;;;7.26;100.00;102040.00;4964416;28;20432;-71
2023/11/08 01:59:42;;;;;;;10.33;8.17;;;;;;;7.24;100.00;102080.22;4975708;28;20444;-71
2023/11/08 02:02:07;;;;;;;10.20;7.80;;;;;;;7.70;100.00;102163.06;4976736;28;20559;-72
2023/11/08 02:04:35;;;;;;;9.90;6.90;;;;;;;8.00;100.00;102183.28;4976202;28;20465;-72
2023/11/08 02:07:01;;;;;;;13.53;9.20;;;;;;;7.50;100.00;102142.78;4963527;28;20209;-72
2023/11/08 02:09:32;;;;;;;12.60;9.50;;;;;;;7.75;100.00;102173.28;4980769;28;20451;-72
2023/11/08 02:12:00;;;;;;;14.67;10.10;;;;;;;7.14;100.00;102089.22;4979664;28;20464;-72
2023/11/08 02:14:27;;;;;;;16.60;10.00;;;;;;;7.83;100.00;102224.16;4978986;28;20448;-71
2023/11/08 02:16:53;;;;;;;15.53;11.03;;;;;;;6.96;100.00;102108.66;4964249;28;20428;-71
2023/11/08 02:19:18;;;;;;;13.53;10.03;;;;;;;7.71;100.00;102236.84;4974492;28;20433;-72
2023/11/08 02:21:44;;;;;;;13.73;10.20;;;;;;;7.66;100.00;102252.47;4962402;28;20260;-71
2023/11/08 02:24:22;;;;;;;13.90;10.20;;;;;;;7.34;100.00;102208.28;4976453;28;20186;-72
2023/11/08 02:26:48;;;;;;;17.43;11.03;;;;;;;7.63;100.00;102272.28;4978267;28;20182;-72
2023/11/08 02:29:17;;;;;;;17.00;10.80;;;;;;;7.48;100.00;102237.19;4978898;28;20515;-71
2023/11/08 02:31:44;;;;;;;15.00;11.27;;;;;;;7.96;100.00;102328.88;4959028;28;21067;-72
2023/11/08 02:34:09;;;;;;;15.23;11.23;;;;;;;7.67;100.00;102297.72;4976356;28;20504;-72
2023/11/08 02:36:36;;;;;;;14.07;10.93;;;;;;;8.11;100.00;102348.78;4960149;28;20428;-71
2023/11/08 02:39:06;;;;;;;19.40;11.90;;;;;;;7.86;100.00;102355.59;4977369;28;20238;-72
2023/11/08 02:41:32;;;;;;;18.03;11.30;;;;;;;7.73;100.00;102357.75;4981058;28;20452;-72
2023/11/08 02:43:58;;;;;;;15.30;11.20;;;;;;;7.90;100.00;102375.72;4974869;28;20499;-72
2023/11/08 02:46:24;;;;;;;13.97;10.70;;;;;;;7.87;100.00;102396.53;4975920;28;20964;-71
2023/11/08 02:48:56;;;;;;;22.50;10.63;;;;;;;8.06;100.00;102417.03;4977395;28;20379;-72
2023/11/08 02:51:21;;;;;;;16.10;11.30;;;;;;;7.35;100.00;102340.78;4981874;28;20218;-72
2023/11/08 02:53:47;;;;;;;14.33;10.73;;;;;;;8.05;100.00;102431.38;4972524;28;20500;-72
2023/11/08 02:56:15;;;;;;;16.50;12.80;;;;;;;7.84;100.00;102428.84;4988464;28;20187;-71
2023/11/08 02:58:41;;;;;;;16.67;11.70;;;;;;;7.87;100.00;102439.28;4982774;28;20460;-72
2023/11/08 03:01:06;;;;;;;14.70;11.50;;;;;;;7.91;100.00;102454.88;4970433;28;20488;-72
2023/11/08 03:03:32;;;;;;;18.57;13.30;;;;;;;7.72;100.00;102409.47;4989564;28;20275;-72
2023/11/08 03:05:57;;;;;;;17.50;12.83;;;;;;;7.70;100.00;102406.13;4984550;28;20198;-72
2023/11/08 03:08:23;;;;;;;19.37;14.10;;;;;;;7.88;100.00;102473.84;4964285;28;20233;-72
2023/11/08 03:10:49;;;;;;;16.10;12.70;;;;;;;8.01;100.00;102504.78;4984433;28;20259;-72
2023/11/08 03:13:14;;;;;;;18.83;12.10;;;;;;;7.12;100.00;102380.22;4988171;28;20432;-72
2023/11/08 03:15:40;;;;;;;14.60;11.90;;;;;;;7.44;100.00;102456.56;4966952;28;20648;-72
2023/11/08 03:18:06;;;;;;;13.60;11.20;;;;;;;7.77;100.00;102530.09;4985945;28;20227;-72
2023/11/08 03:20:32;;;;;;;17.20;11.30;;;;;;;7.45;100.00;102482.25;4967163;28;20201;-72
2023/11/08 03:22:58;;;;;;;13.30;8.77;;;;;;;8.15;100.00;102581.88;4981535;28;21060;-72
2023/11/08 03:25:23;;;;;;;13.20;10.27;;;;;;;8.04;100.00;102588.22;4960098;28;20441;-72
2023/11/08 03:27:49;;;;;;;15.63;9.60;;;;;;;7.78;100.00;102542.47;4979237;28;20551;-72
2023/11/08 03:30:16;;;;;;;10.40;8.33;;;;;;;8.08;100.00;102559.38;4964291;28;20595;-72
2023/11/08 03:32:46;;;;;;;11.30;8.53;;;;;;;7.89;100.00;102546.84;4975810;28;20182;-71
2023/11/08 03:35:13;;;;;;;15.93;9.80;;;;;;;8.11;100.00;102583.97;4963422;28;20458;-72
2023/11/08 03:37:40;;;;;;;13.40;8.30;;;;;;;8.21;100.00;102591.16;4978410;28;20469;-71
2023/11/08 03:40:11;;;;;;;12.20;8.70;;;;;;;8.01;100.00;102555.56;4957321;28;20495;-72
2023/11/08 03:42:40;;;;;;;13.57;9.17;;;;;;;8.01;100.00;102560.91;4963441;28;20480;-72
2023/11/08 03:45:06;;;;;;;13.43;10.03;;;;;;;7.98;100.00;102537.97;4973323;28;20459;-71
2023/11/08 03:47:32;;;;;;;12.37;9.63;;;;;;;8.17;100.00;102547.84;4979852;28;20866;-72
2023/11/08 03:49:58;;;;;;;16.70;10.57;;;;;;;7.79;100.00;102484.56;4979720;28;20445;-72
2023/11/08 03:52:23;;;;;;;11.73;10.17;;;;;;;7.84;100.00;102467.13;4960665;28;20235;-72
2023/11/08 03:54:49;;;;;;;15.40;11.13;;;;;;;8.19;100.00;102532.50;4964024;28;20447;-71
2023/11/08 03:57:15;;;;;;;15.90;10.40;;;;;;;7.56;100.00;102425.22;4980155;28;20204;-72
2023/11/08 03:59:40;;;;;;;13.53;9.20;;;;;;;8.10;100.00;102482.56;4978729;28;20444;-72
2023/11/08 04:02:06;;;;;;;13.83;11.67;;;;;;;7.64;100.00;102415.53;4977804;28;20557;-72
2023/11/08 04:04:31;;;;;;;15.90;10.80;;;;;;;7.78;100.00;102440.97;4979051;28;20190;-72
2023/11/08 04:06:56;;;;;;;13.63;10.33;;;;;;;7.70;100.00;102441.66;4962265;28;20201;-72
2023/11/08 04:09:22;;;;;;;9.53;8.37;;;;;;;7.84;100.00;102432.41;4977286;28;20944;-72
2023/11/08 04:11:47;;;;;;;11.50;7.67;;;;;;;7.98;100.00;102447.13;4965192;28;20194;-72
2023/11/08 04:14:13;;;;;;;9.50;7.37;;;;;;;7.81;100.00;102442.50;4973709;28;20182;-72
2023/11/08 04:16:39;;;;;;;10.60;7.03;;;;;;;8.03;100.00;102490.31;4964963;28;20378;-72
2023/11/08 04:19:05;;;;;;;9.73;6.40;;;;;;;7.81;100.00;102455.84;4980141;28;20204;-72
2023/11/08 04:21:31;;;;;;;9.73;6.33;;;;;;;8.15;100.00;102494.50;4981230;28;20583;-72
2023/11/08 04:23:56;;;;;;;8.33;5.47;;;;;;;8.09;100.00;102494.22;4981331;28;20533;-72
2023/11/08 04:26:22;;;;;;;10.93;5.07;;;;;;;7.73;100.00;102448.56;4986632;28;20200;-72
2023/11/08 04:28:47;;;;;;;9.10;5.50;;;;;;;7.56;100.00;102427.91;4982895;28;20200;-72
2023/11/08 04:31:13;;;;;;;9.90;6.07;;;;;;;7.89;100.00;102472.03;4982046;28;20731;-72
2023/11/08 04:33:39;;;;;;;10.60;7.37;;;;;;;7.21;100.00;102379.41;4985452;28;20690;-72
2023/11/08 04:36:07;;;;;;;13.20;8.07;;;;;;;7.93;100.00;102508.19;4982934;28;20472;-72
2023/11/08 04:38:33;;;;;;;10.93;7.80;;;;;;;7.72;100.00;102446.00;4965071;28;20337;-72
2023/11/08 04:40:59;;;;;;;11.07;8.73;;;;;;;7.81;100.00;102438.03;4982437;28;20551;-72
2023/11/08 04:43:24;;;;;;;16.03;9.00;;;;;;;7.44;100.00;102405.84;4962818;28;20946;-72
2023/11/08 04:45:50;;;;;;;13.87;9.63;;;;;;;8.03;100.00;102492.13;4982587;28;20193;-72
2023/11/08 04:48:15;;;;;;;11.70;8.80;;;;;;;8.02;100.00;102493.97;4964480;28;20224;-72
2023/11/08 04:50:40;;;;;;;15.00;9.17;;;;;;;7.99;100.00;102488.91;4967741;28;20209;-72
2023/11/08 04:53:06;;;;;;;12.80;8.87;;;;;;;7.49;100.00;102422.25;4984288;28;20197;-72
2023/11/08 04:55:31;;;;;;;14.93;10.30;;;;;;;7.63;100.00;102469.06;4967736;28;20216;-72
2023/11/08 04:57:57;;;;;;;17.30;11.50;;;;;;;8.00;100.00;102538.69;4985538;28;20189;-72
2023/11/08 05:00:22;;;;;;;20.33;11.00;;;;;;;7.28;100.00;102427.72;4979731;28;20687;-72
2023/11/08 05:02:48;;;;;;;14.80;11.87;;;;;;;7.28;100.00;102440.22;4980187;28;20648;-72
2023/11/08 05:05:15;;;;;;;16.07;11.67;;;;;;;7.94;100.00;102523.22;4978373;28;20237;-72
2023/11/08 05:07:42;;;;;;;17.13;11.13;;;;;;;7.84;100.00;102549.94;4961880;28;20664;-72
2023/11/08 05:10:09;;;;;;;17.33;9.40;;;;;;;7.69;100.00;102517.44;4965178;28;21285;-72
2023/11/08 05:12:35;;;;;;;11.63;8.10;;;;;;;7.88;100.00;102572.72;4969407;28;20507;-72
2023/11/08 05:15:01;;;;;;;12.80;8.60;;;;;;;8.18;100.00;102572.72;4971160;28;20452;-72
2023/11/08 05:17:27;;;;;;;13.43;7.60;;;;;;;7.42;100.00;102471.88;4975640;28;20467;-72
2023/11/08 05:19:52;;;;;;;15.37;7.87;;;;;;;7.43;100.00;102479.75;4964020;28;20460;-72
2023/11/08 05:22:18;;;;;;;11.10;6.27;;;;;;;7.90;100.00;102552.06;4962265;28;20676;-72
2023/11/08 05:24:43;;;;;;;9.53;5.60;;;;;;;7.99;100.00;102554.88;4960841;28;20205;-72
2023/11/08 05:27:11;;;;;;;13.80;5.50;;;;;;;8.27;100.00;102580.75;4979294;28;20232;-72
2023/11/08 05:29:37;;;;;;;10.27;4.87;;;;;;;8.31;100.00;102565.28;4979978;28;20189;-72
2023/11/08 05:32:03;;;;;;;7.80;4.60;;;;;;;8.10;100.00;102536.00;4969481;28;20465;-72
2023/11/08 05:34:28;;;;;;;8.40;4.30;;;;;;;7.87;100.00;102458.81;4967546;28;20855;-72
2023/11/08 05:36:54;;;;;;;11.80;4.17;;;;;;;8.12;100.00;102491.28;4986642;28;20197;-72
2023/11/08 05:39:24;;;;;;;10.03;4.33;;;;;;;8.21;100.00;102481.56;4969055;28;20804;-72
2023/11/08 05:41:51;;;;;;;8.23;4.40;;;;;;;8.05;100.00;102483.00;4989321;28;20202;-72
2023/11/08 05:44:17;;;;;;;9.10;4.30;;;;;;;8.00;100.00;102447.00;4983314;28;20518;-72
2023/11/08 05:46:42;;;;;;;7.40;3.33;;;;;;;8.02;100.00;102421.81;4988076;28;20837;-72
2023/11/08 05:49:08;;;;;;;9.30;5.50;;;;;;;8.36;100.00;102456.06;4983691;28;20206;-73
2023/11/08 05:51:34;;;;;;;6.43;5.07;;;;;;;8.23;100.00;102443.00;4983066;28;20209;-72
2023/11/08 05:54:00;;;;;;;10.00;5.50;;;;;;;8.18;100.00;102433.72;4970855;28;20440;-71
2023/11/08 05:56:26;;;;;;;9.40;6.23;;;;;;;8.11;100.00;102420.94;4987209;28;20222;-71
2023/11/08 05:58:51;;;;;;;12.30;7.60;;;;;;;7.48;100.00;102337.81;4967853;28;20468;-72
2023/11/08 06:01:19;;;;;;;13.80;7.57;;;;;;;8.27;100.00;102400.78;4962559;28;20221;-71
2023/11/08 06:03:45;;;;;;;14.83;7.93;;;;;;;8.26;100.00;102399.09;4980500;28;20193;-72
2023/11/08 06:06:10;;;;;;;12.33;9.00;;;;;;;8.01;100.00;102376.53;4980804;28;20524;-72
2023/11/08 06:08:36;;;;;;;25.57;11.30;;;;;;;7.96;100.00;102393.00;4977311;28;20234;-71
2023/11/08 06:11:04;;;;;;;13.07;9.87;;;;;;;8.12;100.00;102400.41;4980770;28;20574;-71
2023/11/08 06:13:32;;;;;;;16.67;10.40;;;;;;;8.20;100.00;102424.59;4964567;28;20441;-72
2023/11/08 06:15:58;;;;;;;17.30;11.03;;;;;;;8.03;100.00;102419.97;4967403;28;20430;-72
2023/11/08 06:18:26;;;;;;;19.73;11.73;;;;;;;7.97;100.00;102434.75;4980262;28;20847;-71
2023/11/08 06:20:52;;;;;;;17.10;9.67;;;;;;;8.00;100.00;102420.28;4959729;28;21242;-72
2023/11/08 06:23:17;;;;;;;16.47;10.30;;;;;;;8.06;100.00;102438.41;4964946;28;20805;-72
2023/11/08 06:25:43;;;;;;;14.97;9.93;;;;;;;7.98;100.00;102427.56;4976584;28;20437;-71
2023/11/08 06:28:09;;;;;;;16.10;9.43;;;;;;;7.58;100.00;102408.09;4964090;28;20252;-71
2023/11/08 06:30:34;;;;;;;21.07;11.17;;;;;;;7.99;100.00;102478.22;4978972;28;20970;-72
2023/11/08 06:33:02;;;;;;;17.30;10.53;;;;;;;8.00;100.00;102482.56;4959453;28;20261;-72
2023/11/08 06:35:27;;;;;;;21.33;11.80;;;;;;;7.89;100.00;102491.56;4980320;28;20617;-71
2023/11/08 06:37:53;;;;;;;18.27;12.40;;;;;;;7.79;100.00;102497.91;4977709;28;20447;-71
2023/11/08 06:40:18;;;;;;;15.77;11.57;;;;;;;7.65;100.00;102467.94;4964120;28;20185;-71
2023/11/08 06:42:44;;;;;;;19.03;12.27;;;;;;;7.74;100.00;102492.13;4979174;28;20688;-71
2023/11/08 06:45:09;;;;;;;21.40;12.43;;;;;;;7.72;100.00;102510.97;4966963;28;20193;-71
2023/11/08 06:47:35;;;;;;;19.80;12.00;;;;;;;7.76;100.00;102511.53;4981098;28;20236;-72
2023/11/08 06:50:02;;;;;;;18.20;12.80;;;;;;;7.92;100.00;102555.41;4961535;28;20292;-72
2023/11/08 06:52:27;;;;;;;24.20;13.20;;;;;;;7.57;100.00;102499.00;4978619;28;20206;-71
2023/11/08 06:54:53;;;;;;;24.20;11.93;;;;;;;7.89;100.00;102530.81;4980524;28;20440;-72
2023/11/08 06:57:18;;;;;;;25.83;14.10;;;;;;;7.78;100.00;102504.22;4978044;28;20189;-72
2023/11/08 06:59:47;;;;;;;22.80;13.33;;;;;;;7.88;100.00;102527.28;4982024;28;20225;-71
2023/11/08 07:02:12;;;;;;;24.93;14.17;;;;;;;7.56;100.00;102459.94;4980455;28;20213;-72
2023/11/08 07:04:38;;;;;;;24.20;17.13;;;;;;;7.65;100.00;102501.81;4979612;28;20438;-72
2023/11/08 07:07:04;;;;;;;19.93;13.93;;;;;;;8.06;100.00;102562.19;4979344;28;20224;-72
2023/11/08 07:09:30;;;;;;;21.87;15.63;;;;;;;7.91;100.00;102555.56;4978276;28;20927;-72
2023/11/08 07:11:57;;;;;;;24.03;16.10;;;;;;;7.77;100.00;102550.63;4978736;28;20251;-72
2023/11/08 07:14:23;;;;;;;22.40;15.80;;;;;;;7.63;100.00;102539.34;4980473;28;20444;-72
2023/11/08 07:16:48;;;;;;;21.70;16.63;;;;;;;7.92;100.00;102592.81;4981707;28;20903;-72
2023/11/08 07:19:14;;;;;;;23.13;15.00;;;;;;;8.05;100.00;102621.97;4981100;28;20433;-71
2023/11/08 07:21:40;;;;;;;22.63;16.07;;;;;;;7.97;100.00;102637.00;4964805;28;20201;-71
2023/11/08 07:24:07;;;;;;;25.40;15.90;;;;;;;7.98;100.00;102610.13;4978655;28;20185;-71
2023/11/08 07:26:32;;;;;;;19.80;15.75;;;;;;;8.03;100.00;102641.78;4977446;28;20461;-71
2023/11/08 07:28:58;;;;;;;26.03;16.07;;;;;;;7.75;100.00;102608.66;4963711;28;20985;-71
2023/11/08 07:31:24;;;;;;;22.80;17.40;;;;;;;8.00;100.00;102650.09;4979830;28;20205;-71
2023/11/08 07:33:50;;;;;;;26.50;17.80;;;;;;;7.89;100.00;102621.66;4981580;28;20802;-72
2023/11/08 07:36:15;;;;;;;29.00;16.97;;;;;;;8.24;100.00;102682.59;4968899;28;21012;-71
2023/11/08 07:38:41;;;;;;;23.80;16.10;;;;;;;7.88;100.00;102633.31;4980221;28;20663;-71
2023/11/08 07:41:07;;;;;;;24.47;17.40;;;;;;;8.18;100.00;102699.19;4959122;28;20304;-72
2023/11/08 07:43:32;;;;;;;27.23;17.77;;;;;;;8.01;100.00;102679.31;4965662;28;20276;-72
2023/11/08 07:46:01;;;;;;;26.97;15.97;;;;;;;8.25;100.00;102705.72;4968928;28;20197;-72
2023/11/08 07:48:26;;;;;;;26.97;17.07;;;;;;;8.34;100.00;102734.28;4976828;28;20213;-72
2023/11/08 07:50:55;;;;;;;23.90;16.43;;;;;;;7.91;100.00;102698.00;4967981;28;20464;-72
2023/11/08 07:53:21;;;;;;;28.87;16.70;;;;;;;8.10;100.00;102739.13;4976495;28;20193;-72
2023/11/08 07:55:49;;;;;;;27.13;17.40;;;;;;;8.15;100.00;102751.09;4982902;28;20903;-72
2023/11/08 07:58:17;;;;;;;30.93;18.80;;;;;;;8.16;100.00;102762.66;4963740;28;20943;-71
2023/11/08 08:00:45;;;;;;;32.83;16.93;;;;;;;8.14;100.00;102756.59;4980759;28;20245;-72
2023/11/08 08:03:13;;;;;;;23.90;16.50;;;;;;;8.06;100.00;102759.94;4964244;28;20523;-72
2023/11/08 08:05:42;;;;;;;22.70;17.33;;;;;;;8.14;100.00;102789.53;4981071;28;21061;-71
2023/11/08 08:08:09;;;;;;;28.07;17.43;;;;;;;7.77;100.00;102725.09;4961236;28;20588;-72
2023/11/08 08:10:35;;;;;;;26.00;16.63;;;;;;;8.13;100.00;102746.91;4966420;28;20583;-70
2023/11/08 08:13:03;;;;;;;24.90;15.17;;;;;;;8.38;100.00;102774.97;4965563;28;20520;-69
2023/11/08 08:15:28;;;;;;;31.70;16.67;;;;;;;8.15;100.00;102735.06;4977981;28;20190;-70
2023/11/08 08:17:54;;;;;;;24.70;17.33;;;;;;;8.35;100.00;102760.03;4981950;28;20505;-70
2023/11/08 08:20:19;;;;;;;22.60;15.17;;;;;;;8.22;100.00;102745.25;4975944;28;20636;-70
2023/11/08 08:22:45;;;;;;;27.70;16.83;;;;;;;8.34;100.00;102784.25;4963607;28;20190;-70
2023/11/08 08:25:11;;;;;;;18.87;14.30;;;;;;;8.15;100.00;102712.84;4958584;28;20228;-70
2023/11/08 08:27:39;;;;;;;24.10;15.80;;;;;;;8.35;100.00;102740.47;4962670;28;20217;-70
2023/11/08 08:30:14;;;;;;;25.23;14.97;;;;;;;8.42;100.00;102757.69;4978927;28;20502;-70
2023/11/08 08:32:42;;;;;;;21.47;15.73;;;;;;;8.45;100.00;102762.78;4959537;28;20855;-70
2023/11/08 08:35:08;;;;;;;20.00;14.83;;;;;;;8.48;100.00;102764.34;4979794;28;20440;-70
2023/11/08 08:37:33;;;;;;;22.10;13.30;;;;;;;8.23;100.00;102729.06;4962559;28;20453;-70
2023/11/08 08:40:00;;;;;;;18.00;12.57;;;;;;;8.59;100.00;102783.78;4977537;28;20186;-70
2023/11/08 08:42:25;;;;;;;18.73;13.00;;;;;;;8.53;100.00;102778.13;4980459;28;20239;-70
2023/11/08 08:44:51;;;;;;;20.30;13.93;;;;;;;7.76;100.00;102635.25;4967806;28;21113;-70
2023/11/08 08:47:16;;;;;;;24.80;14.20;;;;;;;8.54;100.00;102771.81;4963588;28;20267;-70
2023/11/08 08:49:42;;;;;;;20.70;13.27;;;;;;;8.48;100.00;102746.44;4966941;28;20210;-70
2023/11/08 08:52:08;;;;;;;16.80;13.80;;;;;;;8.53;100.00;102749.56;4966589;28;20210;-70
2023/11/08 08:54:33;;;;;;;24.97;16.27;;;;;;;8.40;100.00;102718.72;4960236;28;20189;-70
2023/11/08 08:57:00;;;;;;;20.20;14.27;;;;;;;8.50;100.00;102711.53;4980644;28;20184;-70
2023/11/08 08:59:27;;;;;;;20.13;14.20;;;;;;;8.34;100.00;102655.91;4976942;28;20198;-70
2023/11/08 09:01:53;;;;;;;24.90;14.60;;;;;;;8.66;100.00;102677.06;4976365;28;20476;-70
2023/11/08 09:04:21;;;;;;;25.90;14.10;;;;;;;8.59;100.00;102670.56;4981909;28;20447;-70
2023/11/08 09:06:46;;;;;;;20.07;14.03;;;;;;;8.40;100.00;102623.28;4982388;28;20692;-70
2023/11/08 09:09:13;;;;;;;18.03;14.10;;;;;;;8.67;100.00;102649.31;4966389;28;20469;-70
2023/11/08 09:11:40;;;;;;;24.00;15.17;;;;;;;8.66;100.00;102631.56;4963695;28;20240;-70
2023/11/08 09:14:08;;;;;;;24.20;15.10;;;;;;;8.63;100.00;102621.16;4968875;28;20830;-70
2023/11/08 09:16:34;;;;;;;22.13;14.30;;;;;;;8.34;100.00;102565.00;4964427;28;20440;-70
2023/11/08 09:19:00;;;;;;;19.17;15.03;;;;;;;8.79;100.00;102601.84;4981058;28;20434;-70
2023/11/08 09:21:26;;;;;;;22.93;15.23;;;;;;;8.96;100.00;102608.28;4978069;28;21029;-70
2023/11/08 09:23:51;;;;;;;22.10;13.97;;;;;;;9.01;100.00;102598.00;4981487;28;20524;-70
2023/11/08 09:26:17;;;;;;;19.80;14.70;;;;;;;8.72;100.00;102542.72;4962096;28;20194;-71
2023/11/08 09:28:42;;;;;;;24.10;14.90;;;;;;;9.00;100.00;102559.69;4979935;28;20220;-71
2023/11/08 09:31:08;;;;;;;19.43;14.70;;;;;;;9.00;100.00;102527.56;4979013;28;20220;-70
2023/11/08 09:33:34;;;;;;;22.30;12.13;;;;;;;8.35;100.00;102385.69;4977019;28;20182;-70
2023/11/08 09:35:59;;;;;;;19.50;12.37;;;;;;;9.24;100.00;102494.06;4983184;28;20909;-70
2023/11/08 09:38:31;;;;;;;17.50;11.93;;;;;;;9.12;100.00;102468.47;4981906;28;20260;-71
2023/11/08 09:40:57;;;;;;;28.63;12.27;;;;;;;8.97;100.00;102423.47;4978098;28;20562;-71
2023/11/08 09:43:23;;;;;;;24.87;12.37;;;;;;;8.68;100.00;102366.59;4978034;28;20437;-71
2023/11/08 09:45:53;;;;;;;17.03;11.87;;;;;;;9.11;100.00;102410.56;4980763;28;20436;-70
2023/11/08 09:48:21;;;;;;;22.83;11.40;;;;;;;9.20;100.00;102401.63;4968207;28;20476;-70
2023/11/08 09:50:47;;;;;;;19.40;12.13;;;;;;;9.33;100.00;102390.56;4981924;28;20453;-70
2023/11/08 09:53:13;;;;;;;19.40;11.00;;;;;;;9.39;100.00;102384.59;4967824;28;20446;-70
2023/11/08 09:55:39;;;;;;;17.00;11.00;;;;;;;9.22;100.00;102335.38;4977818;28;20178;-70
2023/11/08 09:58:09;;;;;;;22.50;11.00;;;;;;;9.12;100.00;102289.97;4979680;28;20951;-71
2023/11/08 10:00:36;;;;;;;14.83;9.83;;;;;;;9.44;100.00;102342.97;4979688;28;20209;-70
2023/11/08 10:03:05;;;;;;;13.30;9.43;;;;;;;9.33;100.00;102305.69;4979426;28;20464;-70
2023/11/08 10:05:36;;;;;;;14.87;9.03;;;;;;;9.36;100.00;102304.56;4981501;28;20434;-70
2023/11/08 10:08:11;;;;;;;14.33;7.77;;;;;;;9.02;100.00;102246.38;4977489;28;20469;-70
2023/11/08 10:10:42;;;;;;;15.27;8.57;;;;;;;9.40;100.00;102284.50;4979182;28;20467;-70
2023/11/08 10:13:07;;;;;;;12.83;7.80;;;;;;;9.41;100.00;102278.16;4964246;28;20953;-71
2023/11/08 10:15:33;;;;;;;17.30;6.97;;;;;;;9.56;100.00;102283.78;4981018;28;20438;-70
2023/11/08 10:18:00;;;;;;;15.43;6.23;;;;;;;9.61;100.00;102271.59;4985730;28;20185;-70
2023/11/08 10:20:34;;;;;;;15.33;6.73;;;;;;;8.93;100.00;102143.78;4986644;28;20442;-70
2023/11/08 10:23:00;;;;;;;17.43;6.50;;;;;;;9.66;100.00;102239.81;4986584;28;20430;-70
2023/11/08 10:25:28;;;;;;;14.67;5.80;;;;;;;9.29;100.00;102165.09;4987548;28;20429;-71
2023/11/08 10:28:07;;;;;;;11.70;6.57;;;;;;;9.59;100.00;102221.84;4987061;28;20599;-70
2023/11/08 10:30:37;;;;;;;18.27;5.77;;;;;;;9.50;100.00;102176.28;4984844;28;20946;-70
2023/11/08 10:33:07;;;;;;;13.60;6.77;;;;;;;9.79;100.00;102183.09;4968854;28;20435;-71
2023/11/08 10:35:39;;;;;;;17.20;6.50;;;;;;;9.93;100.00;102171.78;4987291;28;20425;-71
2023/11/08 10:38:05;;;;;;;14.10;5.53;;;;;;;9.88;100.00;102155.34;4973737;28;20420;-71
2023/11/08 10:40:32;;;;;;;11.50;4.70;;;;;;;10.10;100.00;102163.81;4962918;28;20477;-71
2023/11/08 10:42:58;;;;;;;13.23;5.03;;;;;;;9.93;100.00;102149.50;4986622;28;20428;-70
2023/11/08 10:45:25;;;;;;;7.37;4.80;;;;;;;9.92;100.00;102095.06;4984091;28;20444;-71
2023/11/08 10:47:51;;;;;;;12.73;5.17;;;;;;;9.95;100.00;102096.56;4977570;28;20471;-71
2023/11/08 10:50:18;;;;;;;13.27;4.80;;;;;;;10.54;100.00;102126.03;4976538;28;20449;-71
2023/11/08 10:52:46;;;;;;;8.67;4.50;;;;;;;10.41;100.00;102115.75;4978161;28;20597;-70
2023/11/08 10:55:12;;;;;;;16.27;4.50;;;;;;;10.35;100.00;102090.44;4973901;28;20444;-70
2023/11/08 10:58:02;;;;;;;12.10;4.67;;;;;;;10.27;100.00;102097.66;4981914;28;20438;-70
2023/11/08 11:00:28;;;;;;;12.40;5.03;;;;;;;9.95;100.00;102032.22;4973543;28;20508;-71
2023/11/08 11:02:57;;;;;;;15.07;4.60;;;;;;;9.70;100.00;101980.47;4972597;28;20452;-71
2023/11/08 11:05:23;;;;;;;15.13;5.03;;;;;;;10.06;100.00;102053.34;4962212;28;20437;-70
2023/11/08 11:07:50;;;;;;;14.00;4.40;;;;;;;10.32;100.00;102074.69;4977889;28;20465;-71
2023/11/08 11:10:17;;;;;;;10.17;4.20;;;;;;;10.16;100.00;102053.22;4961178;28;20528;-70